sensor_id;sensor_type;location;lat;lon;timestamp;P1;durP1;ratioP1;P2;durP2;ratioP2
18661;SDS011;61528;49.456;11.098;2023-07-28T00:00:02;5.27;;;4.10;;
18661;SDS011;61528;49.456;11.098;2023-07-28T00:02:29;5.33;;;4.53;;
18661;SDS011;61528;49.456;11.098;2023-07-28T00:04:57;4.93;;;4.43;;
18661;SDS011;61528;49.456;11.098;2023-07-28T00:07:23;5.80;;;4.33;;
18661;SDS011;61528;49.456;11.098;2023-07-28T00:09:50;5.87;;;4.73;;
18661;SDS011;61528;49.456;11.098;2023-07-28T00:12:16;5.90;;;4.93;;
18661;SDS011;61528;49.456;11.098;2023-07-28T00:14:44;6.10;;;5.47;;
18661;SDS011;61528;49.456;11.098;2023-07-28T00:17:11;6.40;;;4.73;;
18661;SDS011;61528;49.456;11.098;2023-07-28T00:19:37;5.60;;;4.60;;
18661;SDS011;61528;49.456;11.098;2023-07-28T00:22:03;6.50;;;5.33;;
18661;SDS011;61528;49.456;11.098;2023-07-28T00:24:30;5.87;;;5.27;;
18661;SDS011;61528;49.456;11.098;2023-07-28T00:26:56;6.93;;;4.80;;
18661;SDS011;61528;49.456;11.098;2023-07-28T00:29:22;5.63;;;5.10;;
18661;SDS011;61528;49.456;11.098;2023-07-28T00:31:49;5.70;;;5.20;;
18661;SDS011;61528;49.456;11.098;2023-07-28T00:34:15;7.50;;;5.47;;
18661;SDS011;61528;49.456;11.098;2023-07-28T00:36:42;5.83;;;5.30;;
18661;SDS011;61528;49.456;11.098;2023-07-28T00:39:08;5.20;;;4.70;;
18661;SDS011;61528;49.456;11.098;2023-07-28T00:41:34;5.60;;;5.00;;
18661;SDS011;61528;49.456;11.098;2023-07-28T00:44:01;5.73;;;5.13;;
18661;SDS011;61528;49.456;11.098;2023-07-28T00:46:27;6.00;;;5.40;;
18661;SDS011;61528;49.456;11.098;2023-07-28T00:48:54;5.53;;;4.90;;
18661;SDS011;61528;49.456;11.098;2023-07-28T00:51:22;5.57;;;5.07;;
18661;SDS011;61528;49.456;11.098;2023-07-28T00:53:48;5.40;;;4.90;;
18661;SDS011;61528;49.456;11.098;2023-07-28T00:56:17;6.50;;;5.27;;
18661;SDS011;61528;49.456;11.098;2023-07-28T00:58:44;6.20;;;5.00;;
18661;SDS011;61528;49.456;11.098;2023-07-28T01:09:13;5.63;;;5.03;;
18661;SDS011;61528;49.456;11.098;2023-07-28T01:11:53;5.73;;;5.13;;
18661;SDS011;61528;49.456;11.098;2023-07-28T01:14:20;5.97;;;5.30;;
18661;SDS011;61528;49.456;11.098;2023-07-28T01:16:47;5.73;;;5.20;;
18661;SDS011;61528;49.456;11.098;2023-07-28T01:19:14;8.67;;;5.50;;
18661;SDS011;61528;49.456;11.098;2023-07-28T01:21:43;5.83;;;5.30;;
18661;SDS011;61528;49.456;11.098;2023-07-28T01:26:41;6.07;;;5.47;;
18661;SDS011;61528;49.456;11.098;2023-07-28T01:29:08;6.60;;;5.60;;
18661;SDS011;61528;49.456;11.098;2023-07-28T01:31:35;6.30;;;5.20;;
18661;SDS011;61528;49.456;11.098;2023-07-28T01:34:02;5.73;;;5.17;;
18661;SDS011;61528;49.456;11.098;2023-07-28T01:36:28;7.63;;;5.37;;
18661;SDS011;61528;49.456;11.098;2023-07-28T01:38:54;5.63;;;5.13;;
18661;SDS011;61528;49.456;11.098;2023-07-28T01:41:20;5.90;;;4.93;;
18661;SDS011;61528;49.456;11.098;2023-07-28T01:43:48;6.57;;;5.87;;
18661;SDS011;61528;49.456;11.098;2023-07-28T01:46:17;5.67;;;4.97;;
18661;SDS011;61528;49.456;11.098;2023-07-28T01:48:44;6.00;;;5.33;;
18661;SDS011;61528;49.456;11.098;2023-07-28T01:51:10;6.23;;;5.20;;
18661;SDS011;61528;49.456;11.098;2023-07-28T01:56:22;6.50;;;5.40;;
18661;SDS011;61528;49.456;11.098;2023-07-28T01:58:50;6.40;;;5.00;;
18661;SDS011;61528;49.456;11.098;2023-07-28T02:01:17;7.00;;;5.47;;
18661;SDS011;61528;49.456;11.098;2023-07-28T02:03:44;6.23;;;5.63;;
18661;SDS011;61528;49.456;11.098;2023-07-28T02:06:10;6.17;;;5.37;;
18661;SDS011;61528;49.456;11.098;2023-07-28T02:08:36;6.47;;;5.80;;
18661;SDS011;61528;49.456;11.098;2023-07-28T02:11:02;6.23;;;5.63;;
18661;SDS011;61528;49.456;11.098;2023-07-28T02:13:29;6.03;;;5.43;;
18661;SDS011;61528;49.456;11.098;2023-07-28T02:15:55;6.83;;;5.97;;
18661;SDS011;61528;49.456;11.098;2023-07-28T02:18:22;5.57;;;5.07;;
18661;SDS011;61528;49.456;11.098;2023-07-28T02:20:48;6.60;;;5.80;;
18661;SDS011;61528;49.456;11.098;2023-07-28T02:23:15;7.53;;;5.87;;
18661;SDS011;61528;49.456;11.098;2023-07-28T02:25:41;6.97;;;6.27;;
18661;SDS011;61528;49.456;11.098;2023-07-28T02:28:09;6.73;;;6.13;;
18661;SDS011;61528;49.456;11.098;2023-07-28T02:30:37;7.27;;;5.87;;
18661;SDS011;61528;49.456;11.098;2023-07-28T02:33:03;6.77;;;6.17;;
18661;SDS011;61528;49.456;11.098;2023-07-28T02:35:30;7.00;;;6.30;;
18661;SDS011;61528;49.456;11.098;2023-07-28T02:37:57;8.70;;;6.60;;
18661;SDS011;61528;49.456;11.098;2023-07-28T02:40:24;6.70;;;5.93;;
18661;SDS011;61528;49.456;11.098;2023-07-28T02:42:50;6.57;;;5.97;;
18661;SDS011;61528;49.456;11.098;2023-07-28T02:45:18;7.43;;;6.63;;
18661;SDS011;61528;49.456;11.098;2023-07-28T02:47:44;6.67;;;5.97;;
18661;SDS011;61528;49.456;11.098;2023-07-28T02:50:11;6.53;;;5.90;;
18661;SDS011;61528;49.456;11.098;2023-07-28T02:52:37;7.00;;;6.30;;
18661;SDS011;61528;49.456;11.098;2023-07-28T02:55:04;6.90;;;6.30;;
18661;SDS011;61528;49.456;11.098;2023-07-28T02:57:30;7.23;;;6.47;;
18661;SDS011;61528;49.456;11.098;2023-07-28T02:59:56;6.60;;;5.97;;
18661;SDS011;61528;49.456;11.098;2023-07-28T03:02:23;7.07;;;5.70;;
18661;SDS011;61528;49.456;11.098;2023-07-28T03:04:50;6.90;;;6.27;;
18661;SDS011;61528;49.456;11.098;2023-07-28T03:07:16;7.33;;;6.63;;
18661;SDS011;61528;49.456;11.098;2023-07-28T03:09:42;6.83;;;6.13;;
18661;SDS011;61528;49.456;11.098;2023-07-28T03:12:10;7.57;;;6.13;;
18661;SDS011;61528;49.456;11.098;2023-07-28T03:14:37;7.47;;;6.20;;
18661;SDS011;61528;49.456;11.098;2023-07-28T03:17:03;6.27;;;5.73;;
18661;SDS011;61528;49.456;11.098;2023-07-28T03:19:30;7.10;;;6.13;;
18661;SDS011;61528;49.456;11.098;2023-07-28T03:21:56;6.80;;;6.13;;
18661;SDS011;61528;49.456;11.098;2023-07-28T03:24:23;6.70;;;6.10;;
18661;SDS011;61528;49.456;11.098;2023-07-28T03:26:50;7.37;;;6.60;;
18661;SDS011;61528;49.456;11.098;2023-07-28T03:29:18;7.33;;;6.60;;
18661;SDS011;61528;49.456;11.098;2023-07-28T03:31:45;7.83;;;7.10;;
18661;SDS011;61528;49.456;11.098;2023-07-28T03:34:12;6.70;;;6.03;;
18661;SDS011;61528;49.456;11.098;2023-07-28T03:36:38;6.87;;;6.20;;
18661;SDS011;61528;49.456;11.098;2023-07-28T03:39:04;7.33;;;6.73;;
18661;SDS011;61528;49.456;11.098;2023-07-28T03:41:31;7.57;;;6.37;;
18661;SDS011;61528;49.456;11.098;2023-07-28T03:43:57;7.20;;;6.57;;
18661;SDS011;61528;49.456;11.098;2023-07-28T03:46:24;6.90;;;6.10;;
18661;SDS011;61528;49.456;11.098;2023-07-28T03:48:50;7.87;;;7.10;;
18661;SDS011;61528;49.456;11.098;2023-07-28T03:51:18;10.90;;;7.17;;
18661;SDS011;61528;49.456;11.098;2023-07-28T03:53:44;8.00;;;7.20;;
18661;SDS011;61528;49.456;11.098;2023-07-28T03:56:11;9.43;;;7.73;;
18661;SDS011;61528;49.456;11.098;2023-07-28T03:58:38;8.77;;;6.77;;
18661;SDS011;61528;49.456;11.098;2023-07-28T04:01:05;10.40;;;7.67;;
18661;SDS011;61528;49.456;11.098;2023-07-28T04:03:32;7.97;;;6.90;;
18661;SDS011;61528;49.456;11.098;2023-07-28T04:05:59;7.13;;;6.50;;
18661;SDS011;61528;49.456;11.098;2023-07-28T04:08:26;7.97;;;7.20;;
18661;SDS011;61528;49.456;11.098;2023-07-28T04:10:53;8.30;;;6.83;;
18661;SDS011;61528;49.456;11.098;2023-07-28T04:13:20;8.87;;;7.03;;
18661;SDS011;61528;49.456;11.098;2023-07-28T04:15:47;7.67;;;6.90;;
18661;SDS011;61528;49.456;11.098;2023-07-28T04:18:14;7.93;;;6.80;;
18661;SDS011;61528;49.456;11.098;2023-07-28T04:20:40;7.53;;;6.83;;
18661;SDS011;61528;49.456;11.098;2023-07-28T04:23:07;7.40;;;6.73;;
18661;SDS011;61528;49.456;11.098;2023-07-28T04:25:33;8.00;;;7.30;;
18661;SDS011;61528;49.456;11.098;2023-07-28T04:27:59;7.90;;;7.10;;
18661;SDS011;61528;49.456;11.098;2023-07-28T04:30:26;7.37;;;6.67;;
18661;SDS011;61528;49.456;11.098;2023-07-28T04:32:52;8.73;;;7.30;;
18661;SDS011;61528;49.456;11.098;2023-07-28T04:35:19;7.60;;;6.60;;
18661;SDS011;61528;49.456;11.098;2023-07-28T04:37:46;7.80;;;6.63;;
18661;SDS011;61528;49.456;11.098;2023-07-28T04:40:13;7.20;;;6.50;;
18661;SDS011;61528;49.456;11.098;2023-07-28T04:42:39;7.90;;;7.10;;
18661;SDS011;61528;49.456;11.098;2023-07-28T04:45:05;7.57;;;6.87;;
18661;SDS011;61528;49.456;11.098;2023-07-28T04:47:32;8.30;;;6.73;;
18661;SDS011;61528;49.456;11.098;2023-07-28T04:49:58;8.10;;;6.90;;
18661;SDS011;61528;49.456;11.098;2023-07-28T04:52:24;7.23;;;6.53;;
18661;SDS011;61528;49.456;11.098;2023-07-28T04:54:51;7.40;;;6.70;;
18661;SDS011;61528;49.456;11.098;2023-07-28T04:57:18;7.20;;;6.60;;
18661;SDS011;61528;49.456;11.098;2023-07-28T04:59:44;7.73;;;6.93;;
18661;SDS011;61528;49.456;11.098;2023-07-28T05:02:10;7.70;;;6.90;;
18661;SDS011;61528;49.456;11.098;2023-07-28T05:04:37;8.30;;;6.50;;
18661;SDS011;61528;49.456;11.098;2023-07-28T05:07:04;7.80;;;7.00;;
18661;SDS011;61528;49.456;11.098;2023-07-28T05:09:30;7.73;;;6.93;;
18661;SDS011;61528;49.456;11.098;2023-07-28T05:11:56;7.77;;;6.97;;
18661;SDS011;61528;49.456;11.098;2023-07-28T05:14:23;7.13;;;6.53;;
18661;SDS011;61528;49.456;11.098;2023-07-28T05:16:49;8.97;;;6.73;;
18661;SDS011;61528;49.456;11.098;2023-07-28T05:19:17;7.20;;;6.50;;
18661;SDS011;61528;49.456;11.098;2023-07-28T05:21:43;7.23;;;6.50;;
18661;SDS011;61528;49.456;11.098;2023-07-28T05:24:09;8.73;;;6.73;;
18661;SDS011;61528;49.456;11.098;2023-07-28T05:26:36;7.90;;;6.93;;
18661;SDS011;61528;49.456;11.098;2023-07-28T05:29:02;9.43;;;6.80;;
18661;SDS011;61528;49.456;11.098;2023-07-28T05:31:28;7.27;;;6.57;;
18661;SDS011;61528;49.456;11.098;2023-07-28T05:33:55;8.17;;;7.33;;
18661;SDS011;61528;49.456;11.098;2023-07-28T05:36:21;7.97;;;6.77;;
18661;SDS011;61528;49.456;11.098;2023-07-28T05:38:47;8.33;;;7.43;;
18661;SDS011;61528;49.456;11.098;2023-07-28T05:41:14;7.70;;;7.00;;
18661;SDS011;61528;49.456;11.098;2023-07-28T05:43:41;7.83;;;7.03;;
18661;SDS011;61528;49.456;11.098;2023-07-28T05:46:07;8.10;;;7.30;;
18661;SDS011;61528;49.456;11.098;2023-07-28T05:48:34;9.13;;;6.93;;
18661;SDS011;61528;49.456;11.098;2023-07-28T05:51:00;7.47;;;6.77;;
18661;SDS011;61528;49.456;11.098;2023-07-28T05:53:26;8.20;;;6.90;;
18661;SDS011;61528;49.456;11.098;2023-07-28T05:55:53;8.20;;;7.37;;
18661;SDS011;61528;49.456;11.098;2023-07-28T05:58:19;7.70;;;6.90;;
18661;SDS011;61528;49.456;11.098;2023-07-28T06:00:46;7.40;;;6.73;;
18661;SDS011;61528;49.456;11.098;2023-07-28T06:03:13;7.80;;;7.00;;
18661;SDS011;61528;49.456;11.098;2023-07-28T06:05:39;7.57;;;6.87;;
18661;SDS011;61528;49.456;11.098;2023-07-28T06:08:07;7.00;;;6.40;;
18661;SDS011;61528;49.456;11.098;2023-07-28T06:10:34;10.40;;;7.63;;
18661;SDS011;61528;49.456;11.098;2023-07-28T06:13:01;7.67;;;6.97;;
18661;SDS011;61528;49.456;11.098;2023-07-28T06:15:27;8.20;;;7.20;;
18661;SDS011;61528;49.456;11.098;2023-07-28T06:17:53;8.73;;;7.30;;
18661;SDS011;61528;49.456;11.098;2023-07-28T06:20:19;7.43;;;6.60;;
18661;SDS011;61528;49.456;11.098;2023-07-28T06:22:45;7.83;;;7.10;;
18661;SDS011;61528;49.456;11.098;2023-07-28T06:25:12;8.00;;;6.90;;
18661;SDS011;61528;49.456;11.098;2023-07-28T06:27:38;8.33;;;6.93;;
18661;SDS011;61528;49.456;11.098;2023-07-28T06:30:04;7.00;;;6.30;;
18661;SDS011;61528;49.456;11.098;2023-07-28T06:32:31;8.53;;;6.60;;
18661;SDS011;61528;49.456;11.098;2023-07-28T06:34:57;7.33;;;6.63;;
18661;SDS011;61528;49.456;11.098;2023-07-28T06:37:24;7.73;;;6.80;;
18661;SDS011;61528;49.456;11.098;2023-07-28T06:39:50;7.13;;;6.53;;
18661;SDS011;61528;49.456;11.098;2023-07-28T06:42:16;7.93;;;7.13;;
18661;SDS011;61528;49.456;11.098;2023-07-28T06:44:48;8.23;;;6.83;;
18661;SDS011;61528;49.456;11.098;2023-07-28T06:47:15;7.93;;;7.13;;
18661;SDS011;61528;49.456;11.098;2023-07-28T06:49:41;8.27;;;7.37;;
18661;SDS011;61528;49.456;11.098;2023-07-28T06:52:07;8.00;;;7.20;;
18661;SDS011;61528;49.456;11.098;2023-07-28T06:54:34;8.43;;;7.57;;
18661;SDS011;61528;49.456;11.098;2023-07-28T06:57:00;9.03;;;7.60;;
18661;SDS011;61528;49.456;11.098;2023-07-28T06:59:27;9.00;;;7.90;;
18661;SDS011;61528;49.456;11.098;2023-07-28T07:01:53;9.10;;;8.30;;
18661;SDS011;61528;49.456;11.098;2023-07-28T07:04:19;9.63;;;8.00;;
18661;SDS011;61528;49.456;11.098;2023-07-28T07:06:45;9.33;;;8.27;;
18661;SDS011;61528;49.456;11.098;2023-07-28T07:09:12;8.13;;;7.43;;
18661;SDS011;61528;49.456;11.098;2023-07-28T07:11:41;10.53;;;7.70;;
18661;SDS011;61528;49.456;11.098;2023-07-28T07:14:07;8.30;;;7.40;;
18661;SDS011;61528;49.456;11.098;2023-07-28T07:16:34;7.90;;;7.20;;
18661;SDS011;61528;49.456;11.098;2023-07-28T07:19:00;9.30;;;7.63;;
18661;SDS011;61528;49.456;11.098;2023-07-28T07:21:29;8.47;;;7.60;;
18661;SDS011;61528;49.456;11.098;2023-07-28T07:23:56;8.87;;;7.97;;
18661;SDS011;61528;49.456;11.098;2023-07-28T07:26:22;12.33;;;8.33;;
18661;SDS011;61528;49.456;11.098;2023-07-28T07:28:48;10.70;;;8.80;;
18661;SDS011;61528;49.456;11.098;2023-07-28T07:31:14;9.20;;;8.30;;
18661;SDS011;61528;49.456;11.098;2023-07-28T07:33:41;9.17;;;8.27;;
18661;SDS011;61528;49.456;11.098;2023-07-28T07:36:12;9.43;;;8.47;;
18661;SDS011;61528;49.456;11.098;2023-07-28T07:38:38;10.90;;;8.50;;
18661;SDS011;61528;49.456;11.098;2023-07-28T07:41:06;9.17;;;7.97;;
18661;SDS011;61528;49.456;11.098;2023-07-28T07:43:33;7.63;;;6.90;;
18661;SDS011;61528;49.456;11.098;2023-07-28T07:45:59;8.27;;;7.47;;
18661;SDS011;61528;49.456;11.098;2023-07-28T07:48:25;7.47;;;6.57;;
18661;SDS011;61528;49.456;11.098;2023-07-28T07:50:52;7.53;;;6.17;;
18661;SDS011;61528;49.456;11.098;2023-07-28T07:53:18;6.57;;;6.00;;
18661;SDS011;61528;49.456;11.098;2023-07-28T07:55:45;6.93;;;5.73;;
18661;SDS011;61528;49.456;11.098;2023-07-28T07:58:12;8.03;;;5.67;;
18661;SDS011;61528;49.456;11.098;2023-07-28T08:00:38;6.47;;;5.73;;
18661;SDS011;61528;49.456;11.098;2023-07-28T08:03:04;6.47;;;5.03;;
18661;SDS011;61528;49.456;11.098;2023-07-28T08:05:31;6.10;;;5.37;;
18661;SDS011;61528;49.456;11.098;2023-07-28T08:07:57;7.10;;;5.70;;
18661;SDS011;61528;49.456;11.098;2023-07-28T08:10:24;6.00;;;5.50;;
18661;SDS011;61528;49.456;11.098;2023-07-28T08:12:50;7.83;;;5.57;;
18661;SDS011;61528;49.456;11.098;2023-07-28T08:15:17;5.57;;;4.97;;
18661;SDS011;61528;49.456;11.098;2023-07-28T08:17:45;5.73;;;5.13;;
18661;SDS011;61528;49.456;11.098;2023-07-28T08:20:12;5.60;;;4.90;;
18661;SDS011;61528;49.456;11.098;2023-07-28T08:25:43;5.30;;;4.80;;
18661;SDS011;61528;49.456;11.098;2023-07-28T08:28:10;5.23;;;4.73;;
18661;SDS011;61528;49.456;11.098;2023-07-28T08:30:36;5.10;;;4.37;;
18661;SDS011;61528;49.456;11.098;2023-07-28T08:33:03;4.93;;;4.43;;
18661;SDS011;61528;49.456;11.098;2023-07-28T08:35:29;5.37;;;4.50;;
18661;SDS011;61528;49.456;11.098;2023-07-28T08:37:56;5.63;;;4.73;;
18661;SDS011;61528;49.456;11.098;2023-07-28T08:40:22;5.10;;;4.67;;
18661;SDS011;61528;49.456;11.098;2023-07-28T08:42:49;4.13;;;3.83;;
18661;SDS011;61528;49.456;11.098;2023-07-28T08:45:17;4.33;;;3.93;;
18661;SDS011;61528;49.456;11.098;2023-07-28T08:47:45;4.80;;;4.40;;
18661;SDS011;61528;49.456;11.098;2023-07-28T08:50:11;3.97;;;3.67;;
18661;SDS011;61528;49.456;11.098;2023-07-28T08:52:37;3.83;;;3.30;;
18661;SDS011;61528;49.456;11.098;2023-07-28T08:55:04;4.93;;;3.97;;
18661;SDS011;61528;49.456;11.098;2023-07-28T08:57:31;4.70;;;3.53;;
18661;SDS011;61528;49.456;11.098;2023-07-28T08:59:58;4.93;;;4.00;;
18661;SDS011;61528;49.456;11.098;2023-07-28T09:02:24;3.90;;;3.60;;
18661;SDS011;61528;49.456;11.098;2023-07-28T09:04:50;3.50;;;3.20;;
18661;SDS011;61528;49.456;11.098;2023-07-28T09:07:17;3.80;;;3.50;;
18661;SDS011;61528;49.456;11.098;2023-07-28T09:09:43;3.57;;;3.37;;
18661;SDS011;61528;49.456;11.098;2023-07-28T09:12:09;3.50;;;3.20;;
18661;SDS011;61528;49.456;11.098;2023-07-28T09:14:36;3.63;;;3.33;;
18661;SDS011;61528;49.456;11.098;2023-07-28T09:17:12;3.77;;;3.40;;
18661;SDS011;61528;49.456;11.098;2023-07-28T09:19:54;3.27;;;2.97;;
18661;SDS011;61528;49.456;11.098;2023-07-28T09:22:21;3.20;;;2.90;;
18661;SDS011;61528;49.456;11.098;2023-07-28T09:24:47;3.00;;;2.80;;
18661;SDS011;61528;49.456;11.098;2023-07-28T09:27:21;3.63;;;3.33;;
18661;SDS011;61528;49.456;11.098;2023-07-28T09:29:48;3.20;;;3.00;;
18661;SDS011;61528;49.456;11.098;2023-07-28T09:32:15;2.87;;;2.67;;
18661;SDS011;61528;49.456;11.098;2023-07-28T09:34:41;2.90;;;2.70;;
18661;SDS011;61528;49.456;11.098;2023-07-28T09:37:07;2.10;;;2.00;;
18661;SDS011;61528;49.456;11.098;2023-07-28T09:39:36;2.53;;;2.10;;
18661;SDS011;61528;49.456;11.098;2023-07-28T09:42:02;2.27;;;2.07;;
18661;SDS011;61528;49.456;11.098;2023-07-28T09:44:29;2.00;;;1.90;;
18661;SDS011;61528;49.456;11.098;2023-07-28T09:46:57;2.33;;;2.13;;
18661;SDS011;61528;49.456;11.098;2023-07-28T09:51:53;2.50;;;2.30;;
18661;SDS011;61528;49.456;11.098;2023-07-28T09:54:20;2.00;;;1.80;;
18661;SDS011;61528;49.456;11.098;2023-07-28T09:56:57;2.60;;;2.20;;
18661;SDS011;61528;49.456;11.098;2023-07-28T09:59:28;2.43;;;1.90;;
18661;SDS011;61528;49.456;11.098;2023-07-28T10:01:55;2.87;;;2.03;;
18661;SDS011;61528;49.456;11.098;2023-07-28T10:04:22;1.90;;;1.80;;
18661;SDS011;61528;49.456;11.098;2023-07-28T10:06:50;1.50;;;1.40;;
18661;SDS011;61528;49.456;11.098;2023-07-28T10:09:22;2.10;;;1.60;;
18661;SDS011;61528;49.456;11.098;2023-07-28T10:11:49;2.10;;;1.90;;
18661;SDS011;61528;49.456;11.098;2023-07-28T10:14:26;1.80;;;1.70;;
18661;SDS011;61528;49.456;11.098;2023-07-28T10:16:59;1.60;;;1.50;;
18661;SDS011;61528;49.456;11.098;2023-07-28T10:19:27;1.50;;;1.40;;
18661;SDS011;61528;49.456;11.098;2023-07-28T10:22:00;1.90;;;1.80;;
18661;SDS011;61528;49.456;11.098;2023-07-28T10:27:27;1.70;;;1.60;;
18661;SDS011;61528;49.456;11.098;2023-07-28T10:29:57;1.63;;;1.50;;
18661;SDS011;61528;49.456;11.098;2023-07-28T10:32:28;1.93;;;1.30;;
18661;SDS011;61528;49.456;11.098;2023-07-28T10:35:55;1.90;;;1.53;;
18661;SDS011;61528;49.456;11.098;2023-07-28T10:37:50;1.73;;;1.60;;
18661;SDS011;61528;49.456;11.098;2023-07-28T10:40:32;1.27;;;1.23;;
18661;SDS011;61528;49.456;11.098;2023-07-28T10:43:04;1.77;;;1.67;;
18661;SDS011;61528;49.456;11.098;2023-07-28T10:45:31;1.90;;;1.80;;
18661;SDS011;61528;49.456;11.098;2023-07-28T10:47:58;1.60;;;1.50;;
18661;SDS011;61528;49.456;11.098;2023-07-28T10:50:29;1.60;;;1.50;;
18661;SDS011;61528;49.456;11.098;2023-07-28T10:52:56;2.00;;;1.80;;
18661;SDS011;61528;49.456;11.098;2023-07-28T10:55:23;1.63;;;1.53;;
18661;SDS011;61528;49.456;11.098;2023-07-28T10:57:52;1.50;;;1.40;;
18661;SDS011;61528;49.456;11.098;2023-07-28T11:00:19;2.77;;;1.70;;
18661;SDS011;61528;49.456;11.098;2023-07-28T11:02:50;1.60;;;1.50;;
18661;SDS011;61528;49.456;11.098;2023-07-28T11:05:21;2.97;;;1.70;;
18661;SDS011;61528;49.456;11.098;2023-07-28T11:07:47;2.10;;;1.43;;
18661;SDS011;61528;49.456;11.098;2023-07-28T11:10:14;1.50;;;1.40;;
18661;SDS011;61528;49.456;11.098;2023-07-28T11:12:41;1.70;;;1.60;;
18661;SDS011;61528;49.456;11.098;2023-07-28T11:15:09;1.93;;;1.60;;
18661;SDS011;61528;49.456;11.098;2023-07-28T11:17:37;1.80;;;1.70;;
18661;SDS011;61528;49.456;11.098;2023-07-28T11:20:03;1.90;;;1.80;;
18661;SDS011;61528;49.456;11.098;2023-07-28T11:22:36;2.30;;;1.70;;
18661;SDS011;61528;49.456;11.098;2023-07-28T11:25:05;1.60;;;1.50;;
18661;SDS011;61528;49.456;11.098;2023-07-28T11:27:38;1.70;;;1.60;;
18661;SDS011;61528;49.456;11.098;2023-07-28T11:30:05;1.93;;;1.50;;
18661;SDS011;61528;49.456;11.098;2023-07-28T11:32:35;2.23;;;1.50;;
18661;SDS011;61528;49.456;11.098;2023-07-28T11:37:31;1.60;;;1.50;;
18661;SDS011;61528;49.456;11.098;2023-07-28T11:39:59;1.63;;;1.50;;
18661;SDS011;61528;49.456;11.098;2023-07-28T11:42:26;2.60;;;1.70;;
18661;SDS011;61528;49.456;11.098;2023-07-28T11:44:52;1.30;;;1.30;;
18661;SDS011;61528;49.456;11.098;2023-07-28T11:47:19;1.50;;;1.40;;
18661;SDS011;61528;49.456;11.098;2023-07-28T11:49:46;1.20;;;1.17;;
18661;SDS011;61528;49.456;11.098;2023-07-28T11:52:12;1.20;;;1.10;;
18661;SDS011;61528;49.456;11.098;2023-07-28T11:54:40;3.43;;;1.27;;
18661;SDS011;61528;49.456;11.098;2023-07-28T11:57:07;1.33;;;1.27;;
18661;SDS011;61528;49.456;11.098;2023-07-28T11:59:34;1.50;;;1.40;;
18661;SDS011;61528;49.456;11.098;2023-07-28T12:02:02;2.00;;;1.30;;
18661;SDS011;61528;49.456;11.098;2023-07-28T12:04:30;1.47;;;1.37;;
18661;SDS011;61528;49.456;11.098;2023-07-28T12:09:50;1.87;;;1.33;;
18661;SDS011;61528;49.456;11.098;2023-07-28T12:12:23;1.10;;;1.00;;
18661;SDS011;61528;49.456;11.098;2023-07-28T12:14:51;1.30;;;1.20;;
18661;SDS011;61528;49.456;11.098;2023-07-28T12:17:19;1.20;;;1.10;;
18661;SDS011;61528;49.456;11.098;2023-07-28T12:19:58;1.20;;;1.20;;
18661;SDS011;61528;49.456;11.098;2023-07-28T12:22:25;1.33;;;1.17;;
18661;SDS011;61528;49.456;11.098;2023-07-28T12:24:52;1.17;;;1.07;;
18661;SDS011;61528;49.456;11.098;2023-07-28T12:27:19;1.30;;;1.20;;
18661;SDS011;61528;49.456;11.098;2023-07-28T12:29:49;1.23;;;1.17;;
18661;SDS011;61528;49.456;11.098;2023-07-28T12:32:15;1.53;;;1.33;;
18661;SDS011;61528;49.456;11.098;2023-07-28T12:34:41;1.00;;;1.00;;
18661;SDS011;61528;49.456;11.098;2023-07-28T12:37:08;2.07;;;1.23;;
18661;SDS011;61528;49.456;11.098;2023-07-28T12:39:37;1.20;;;1.20;;
18661;SDS011;61528;49.456;11.098;2023-07-28T12:42:07;1.37;;;1.10;;
18661;SDS011;61528;49.456;11.098;2023-07-28T12:44:34;1.40;;;1.30;;
18661;SDS011;61528;49.456;11.098;2023-07-28T12:47:01;1.40;;;1.30;;
18661;SDS011;61528;49.456;11.098;2023-07-28T12:49:28;1.63;;;1.53;;
18661;SDS011;61528;49.456;11.098;2023-07-28T12:51:55;1.53;;;1.43;;
18661;SDS011;61528;49.456;11.098;2023-07-28T12:54:22;1.93;;;1.40;;
18661;SDS011;61528;49.456;11.098;2023-07-28T12:56:49;2.27;;;1.73;;
18661;SDS011;61528;49.456;11.098;2023-07-28T12:59:16;1.40;;;1.30;;
18661;SDS011;61528;49.456;11.098;2023-07-28T13:01:42;1.63;;;1.53;;
18661;SDS011;61528;49.456;11.098;2023-07-28T13:04:09;1.30;;;1.20;;
18661;SDS011;61528;49.456;11.098;2023-07-28T13:06:35;1.10;;;1.10;;
18661;SDS011;61528;49.456;11.098;2023-07-28T13:09:02;1.30;;;1.30;;
18661;SDS011;61528;49.456;11.098;2023-07-28T13:11:31;2.07;;;1.70;;
18661;SDS011;61528;49.456;11.098;2023-07-28T13:13:57;1.40;;;1.30;;
18661;SDS011;61528;49.456;11.098;2023-07-28T13:16:24;1.60;;;1.50;;
18661;SDS011;61528;49.456;11.098;2023-07-28T13:18:51;1.47;;;1.40;;
18661;SDS011;61528;49.456;11.098;2023-07-28T13:21:18;2.60;;;1.70;;
18661;SDS011;61528;49.456;11.098;2023-07-28T13:23:44;2.03;;;1.40;;
18661;SDS011;61528;49.456;11.098;2023-07-28T13:26:10;1.67;;;1.47;;
18661;SDS011;61528;49.456;11.098;2023-07-28T13:28:37;1.57;;;1.27;;
18661;SDS011;61528;49.456;11.098;2023-07-28T13:31:05;1.77;;;1.20;;
18661;SDS011;61528;49.456;11.098;2023-07-28T13:33:31;2.77;;;1.40;;
18661;SDS011;61528;49.456;11.098;2023-07-28T13:35:58;1.40;;;1.30;;
18661;SDS011;61528;49.456;11.098;2023-07-28T13:38:24;1.30;;;1.20;;
18661;SDS011;61528;49.456;11.098;2023-07-28T13:40:51;2.50;;;1.37;;
18661;SDS011;61528;49.456;11.098;2023-07-28T13:43:17;2.00;;;1.10;;
18661;SDS011;61528;49.456;11.098;2023-07-28T13:45:43;1.30;;;1.20;;
18661;SDS011;61528;49.456;11.098;2023-07-28T13:48:10;1.70;;;1.60;;
18661;SDS011;61528;49.456;11.098;2023-07-28T13:50:36;1.47;;;1.37;;
18661;SDS011;61528;49.456;11.098;2023-07-28T13:53:03;1.10;;;1.10;;
18661;SDS011;61528;49.456;11.098;2023-07-28T13:55:29;1.50;;;1.40;;
18661;SDS011;61528;49.456;11.098;2023-07-28T13:57:56;1.47;;;1.37;;
18661;SDS011;61528;49.456;11.098;2023-07-28T14:00:22;1.60;;;1.50;;
18661;SDS011;61528;49.456;11.098;2023-07-28T14:02:48;1.70;;;1.60;;
18661;SDS011;61528;49.456;11.098;2023-07-28T14:05:15;1.60;;;1.50;;
18661;SDS011;61528;49.456;11.098;2023-07-28T14:07:42;1.40;;;1.23;;
18661;SDS011;61528;49.456;11.098;2023-07-28T14:10:10;1.40;;;1.30;;
18661;SDS011;61528;49.456;11.098;2023-07-28T14:12:36;2.00;;;1.40;;
18661;SDS011;61528;49.456;11.098;2023-07-28T14:15:03;2.97;;;1.43;;
18661;SDS011;61528;49.456;11.098;2023-07-28T14:17:30;1.70;;;1.40;;
18661;SDS011;61528;49.456;11.098;2023-07-28T14:19:56;1.53;;;1.23;;
18661;SDS011;61528;49.456;11.098;2023-07-28T14:22:22;2.30;;;1.53;;
18661;SDS011;61528;49.456;11.098;2023-07-28T14:24:49;2.03;;;1.60;;
18661;SDS011;61528;49.456;11.098;2023-07-28T14:27:15;1.30;;;1.30;;
18661;SDS011;61528;49.456;11.098;2023-07-28T14:29:42;1.47;;;1.37;;
18661;SDS011;61528;49.456;11.098;2023-07-28T14:32:08;1.50;;;1.40;;
18661;SDS011;61528;49.456;11.098;2023-07-28T14:34:34;1.53;;;1.30;;
18661;SDS011;61528;49.456;11.098;2023-07-28T14:37:03;1.27;;;1.17;;
18661;SDS011;61528;49.456;11.098;2023-07-28T14:39:30;2.10;;;1.60;;
18661;SDS011;61528;49.456;11.098;2023-07-28T14:41:56;1.30;;;1.30;;
18661;SDS011;61528;49.456;11.098;2023-07-28T14:44:23;1.23;;;1.20;;
18661;SDS011;61528;49.456;11.098;2023-07-28T14:46:49;1.77;;;1.50;;
18661;SDS011;61528;49.456;11.098;2023-07-28T14:49:15;2.97;;;1.70;;
18661;SDS011;61528;49.456;11.098;2023-07-28T14:51:42;1.50;;;1.40;;
18661;SDS011;61528;49.456;11.098;2023-07-28T14:54:08;1.70;;;1.50;;
18661;SDS011;61528;49.456;11.098;2023-07-28T14:56:35;2.20;;;1.60;;
18661;SDS011;61528;49.456;11.098;2023-07-28T14:59:01;1.80;;;1.50;;